TGPY/GND METAR and TAF weather

Enter ICAO airport designator
Station Type Date Time Source
TGPY METAR 2019/04/24 16:00 UTC NOAA

TGPY 241600Z 11014KT 9999 FEW022 SCT070 29/24 Q1013


Station Type Date Time Source
TGPY Decoded METAR 2019/04/24 16:00 UTC NOAA

Point Salines Airport, Grenada (TGPY) 12-00N 061-47W 7M
Apr 24, 2019 - 12:00 PM EDT / 2019.04.24 1600 UTC
Wind: from the ESE (110 degrees) at 16 MPH (14 KT):0
Visibility: greater than 7 mile(s):0
Sky conditions: partly cloudy
Temperature: 84 F (29 C)
Dew Point: 75 F (24 C)
Relative Humidity: 74%
Pressure (altimeter): 29.91 in. Hg (1013 hPa)
ob: TGPY 241600Z 11014KT 9999 FEW022 SCT070 29/24 Q1013
cycle: 16

Station Type Date Time Source
TGPY TAF 2019/04/24 12:58 UTC NOAA

TAF TGPY 241000Z 2412/2512 09012KT 9999 SCT019 BKN038
BECMG 2417/2419 FEW019 SCT040
BECMG 2504/2506 SCT018 BKN035

Example: see airport list